Alkin Kalkavan — TCOL6 — position and weather

sailwx.info

Track history (hours):
 
Tides and Currents Weather Stations Pressure Air Temp Water Temp Dewpoint Dewpoint Depression Visibility Wind Speed Wind Dir Waves Ship Positions

Alkin Kalkavan

Last reported at 2014-Aug-28 02:29 UTC. Time now 2014-Sep-02 02:13 UTC.
Position N 46°24' E 030°52'.

Length 148 m; draft 7.5 m.

Type: Ship (hazmat cat A). MMSI: 271000905.

Date/timePositionNaut miles runAvg speedWind from/ knotsBaromVisibWave heightAir tempDewpointWater temp
2014-Aug-28 02:29N 46°24' E 030°52'5313.4
2014-Aug-27 22:32N 45°45' E 031°43'1414.5
2014-Aug-27 21:34N 45°34' E 031°55'1414.5
2014-Aug-27 20:33N 45°22' E 032°07'4414.7
2014-Aug-27 17:33N 44°49' E 032°50'8914.9
2014-Aug-27 11:33N 43°48' E 034°21'3 3.1
2014-Aug-27 10:33N 43°47' E 034°25'1010.2
2014-Aug-27 09:33N 43°41' E 034°36'1414.4
2014-Aug-27 08:34N 43°33' E 034°53'1514.5
2014-Aug-27 07:33N 43°25' E 035°09'  
2014-Aug-22 10:24N 42°14' E 038°40'44114.3
2014-Aug-21 03:33N 40°58' E 028°59'10 9.1
2014-Aug-21 02:27N 40°50' E 028°51'1 1.0
2014-Aug-21 01:33N 40°49' E 028°51'1 0.7
2014-Aug-21 00:33N 40°49' E 028°52'1 0.5
2014-Aug-20 23:33N 40°49' E 028°53'1 0.5
2014-Aug-20 22:33N 40°49' E 028°53'10 9.8
2014-Aug-20 21:33N 40°41' E 028°47'1 1.1
2014-Aug-20 20:30N 40°42' E 028°48'1 1.2
2014-Aug-20 19:31N 40°43' E 028°48'1 1.1
2014-Aug-20 18:33N 40°44' E 028°49'1 0.9
2014-Aug-20 17:33N 40°45' E 028°49'1 0.6
2014-Aug-20 16:33N 40°45' E 028°50'0 0.5
2014-Aug-20 15:33N 40°45' E 028°50'0 0.3
2014-Aug-20 14:33N 40°46' E 028°50'  
2014-Aug-18 05:17N 40°56' E 028°39'  
Track history (hours):
 
Tides and Currents Weather Stations Pressure Air Temp Water Temp Dewpoint Dewpoint Depression Visibility Wind Speed Wind Dir Waves Ship Positions

Alkin Kalkavan

Last reported at 2014-Aug-28 02:29 UTC. Time now 2014-Sep-02 02:13 UTC.
Position N 46°24' E 030°52'.

Length 148 m; draft 7.5 m.

Type: Ship (hazmat cat A). MMSI: 271000905.

Date/timePositionNaut miles runAvg speedWind from/ knotsBaromVisibWave heightAir tempDewpointWater temp
2014-Aug-28 02:29N 46°24' E 030°52'5313.4
2014-Aug-27 22:32N 45°45' E 031°43'1414.5
2014-Aug-27 21:34N 45°34' E 031°55'1414.5
2014-Aug-27 20:33N 45°22' E 032°07'4414.7
2014-Aug-27 17:33N 44°49' E 032°50'8914.9
2014-Aug-27 11:33N 43°48' E 034°21'3 3.1
2014-Aug-27 10:33N 43°47' E 034°25'1010.2
2014-Aug-27 09:33N 43°41' E 034°36'1414.4
2014-Aug-27 08:34N 43°33' E 034°53'1514.5
2014-Aug-27 07:33N 43°25' E 035°09'  
2014-Aug-22 10:24N 42°14' E 038°40'44114.3
2014-Aug-21 03:33N 40°58' E 028°59'10 9.1
2014-Aug-21 02:27N 40°50' E 028°51'1 1.0
2014-Aug-21 01:33N 40°49' E 028°51'1 0.7
2014-Aug-21 00:33N 40°49' E 028°52'1 0.5
2014-Aug-20 23:33N 40°49' E 028°53'1 0.5
2014-Aug-20 22:33N 40°49' E 028°53'10 9.8
2014-Aug-20 21:33N 40°41' E 028°47'1 1.1
2014-Aug-20 20:30N 40°42' E 028°48'1 1.2
2014-Aug-20 19:31N 40°43' E 028°48'1 1.1
2014-Aug-20 18:33N 40°44' E 028°49'1 0.9
2014-Aug-20 17:33N 40°45' E 028°49'1 0.6
2014-Aug-20 16:33N 40°45' E 028°50'0 0.5
2014-Aug-20 15:33N 40°45' E 028°50'0 0.3
2014-Aug-20 14:33N 40°46' E 028°50'  
2014-Aug-18 05:17N 40°56' E 028°39'  

Dump ship's entire track history